createdAt,value
2022-12-28T00:00:20.496Z,1010.21
2022-12-28T00:01:20.434Z,1010.18
2022-12-28T00:02:20.471Z,1010.16
2022-12-28T00:03:20.435Z,1010.12
2022-12-28T00:04:20.374Z,1010.11
2022-12-28T00:05:20.376Z,1010.09
2022-12-28T00:06:20.372Z,1010.16
2022-12-28T00:07:20.342Z,1010.08
2022-12-28T00:08:20.335Z,1010.07
2022-12-28T00:09:20.323Z,1010.03
2022-12-28T00:10:20.304Z,1009.97
2022-12-28T00:11:26.512Z,1009.97
2022-12-28T00:12:20.291Z,1009.92
2022-12-28T00:13:20.276Z,1009.88
2022-12-28T00:14:20.265Z,1009.89
2022-12-28T00:15:20.257Z,1009.78
2022-12-28T00:16:20.290Z,1009.77
2022-12-28T00:17:20.234Z,1009.71
2022-12-28T00:18:20.220Z,1009.74
2022-12-28T00:19:20.223Z,1009.72
2022-12-28T00:20:20.207Z,1009.66
2022-12-28T00:21:20.218Z,1009.70
2022-12-28T00:22:20.172Z,1009.72
2022-12-28T00:23:20.171Z,1009.64
2022-12-28T00:24:20.154Z,1009.66
2022-12-28T00:25:20.142Z,1009.62
2022-12-28T00:26:20.161Z,1009.64
2022-12-28T00:27:20.122Z,1009.58
2022-12-28T00:28:20.111Z,1009.64
2022-12-28T00:29:20.103Z,1009.58
2022-12-28T00:30:20.084Z,1009.53
2022-12-28T00:31:20.144Z,1009.60
2022-12-28T00:32:20.061Z,1009.56
2022-12-28T00:33:20.058Z,1009.47
2022-12-28T00:34:20.041Z,1009.51
2022-12-28T00:35:20.043Z,1009.42
2022-12-28T00:36:20.064Z,1009.41
2022-12-28T00:37:20.008Z,1009.43
2022-12-28T00:38:19.997Z,1009.38
2022-12-28T00:39:19.996Z,1009.41
2022-12-28T00:40:23.946Z,1009.45
2022-12-28T00:41:19.992Z,1009.42
2022-12-28T00:42:19.956Z,1009.45
2022-12-28T00:43:19.952Z,1009.46
2022-12-28T00:44:19.944Z,1009.38
2022-12-28T00:45:19.922Z,1009.40
2022-12-28T00:46:19.942Z,1009.40
2022-12-28T00:47:19.898Z,1009.40
2022-12-28T00:48:19.900Z,1009.39
2022-12-28T00:49:19.895Z,1009.41
2022-12-28T00:50:19.870Z,1009.42
2022-12-28T00:51:19.875Z,1009.44
2022-12-28T00:52:19.847Z,1009.42
2022-12-28T00:53:19.833Z,1009.42
2022-12-28T00:54:19.825Z,1009.42
2022-12-28T00:55:19.817Z,1009.47
2022-12-28T00:56:19.829Z,1009.44
2022-12-28T00:57:19.785Z,1009.43
2022-12-28T00:58:19.788Z,1009.39
2022-12-28T00:59:19.777Z,1009.44
2022-12-28T01:00:19.763Z,1009.39
2022-12-28T01:01:19.986Z,1009.44
2022-12-28T01:02:19.790Z,1009.36
2022-12-28T01:03:19.742Z,1009.34
2022-12-28T01:04:19.719Z,1009.29
2022-12-28T01:05:19.710Z,1009.28
2022-12-28T01:06:19.718Z,1009.27
2022-12-28T01:07:19.683Z,1009.27
2022-12-28T01:08:19.676Z,1009.27
2022-12-28T01:09:19.660Z,1009.24
2022-12-28T01:10:19.653Z,1009.20
2022-12-28T01:11:19.653Z,1009.19
2022-12-28T01:12:19.625Z,1009.17
2022-12-28T01:13:19.609Z,1009.13
2022-12-28T01:14:19.614Z,1009.14
2022-12-28T01:15:19.601Z,1009.11
2022-12-28T01:16:19.628Z,1009.11
2022-12-28T01:17:19.565Z,1009.04
2022-12-28T01:18:19.562Z,1009.00
2022-12-28T01:19:19.540Z,1008.93
2022-12-28T01:20:19.545Z,1008.99
2022-12-28T01:21:19.548Z,1008.86
2022-12-28T01:22:19.518Z,1008.82
2022-12-28T01:23:19.498Z,1008.81
2022-12-28T01:24:19.493Z,1008.76
2022-12-28T01:25:19.483Z,1008.76
2022-12-28T01:26:19.495Z,1008.73
2022-12-28T01:27:19.457Z,1008.72
2022-12-28T01:28:19.448Z,1008.74
2022-12-28T01:29:19.439Z,1008.67
2022-12-28T01:30:19.424Z,1008.67
2022-12-28T01:31:19.473Z,1008.65
2022-12-28T01:32:19.407Z,1008.63
2022-12-28T01:33:19.389Z,1008.63
2022-12-28T01:34:19.385Z,1008.63
2022-12-28T01:35:19.372Z,1008.65
2022-12-28T01:36:19.386Z,1008.60
2022-12-28T01:37:19.343Z,1008.59
2022-12-28T01:38:19.339Z,1008.64
2022-12-28T01:39:19.330Z,1008.61
2022-12-28T01:40:19.316Z,1008.54
2022-12-28T01:41:19.351Z,1008.52
2022-12-28T01:42:19.294Z,1008.55
2022-12-28T01:43:29.514Z,1008.52
2022-12-28T01:44:19.280Z,1008.54
2022-12-28T01:45:19.281Z,1008.52
2022-12-28T01:46:19.288Z,1008.58
2022-12-28T01:47:19.237Z,1008.55
2022-12-28T01:48:19.236Z,1008.51
2022-12-28T01:49:19.221Z,1008.45
2022-12-28T01:50:19.210Z,1008.36
2022-12-28T01:51:19.215Z,1008.43
2022-12-28T01:52:19.185Z,1008.37
2022-12-28T01:53:19.165Z,1008.38
2022-12-28T01:54:19.169Z,1008.41
2022-12-28T01:55:19.167Z,1008.33
2022-12-28T01:56:19.148Z,1008.30
2022-12-28T01:57:19.123Z,1008.26
2022-12-28T01:58:19.119Z,1008.26
2022-12-28T01:59:19.106Z,1008.17
2022-12-28T02:00:19.124Z,1008.14
2022-12-28T02:01:19.260Z,1008.16
2022-12-28T02:02:19.332Z,1008.11
2022-12-28T02:03:19.117Z,1008.14
2022-12-28T02:04:19.051Z,1008.05
2022-12-28T02:05:19.055Z,1008.06
2022-12-28T02:06:19.027Z,1008.07
2022-12-28T02:07:19.017Z,1008.02
2022-12-28T02:08:19.006Z,1008.00
2022-12-28T02:09:19.007Z,1007.97
2022-12-28T02:10:40.984Z,1007.92
2022-12-28T02:11:19.011Z,1007.91
2022-12-28T02:12:18.959Z,1007.94
2022-12-28T02:13:18.947Z,1007.93
2022-12-28T02:14:18.942Z,1007.87
2022-12-28T02:15:23.066Z,1007.83
2022-12-28T02:16:19.035Z,1007.82
2022-12-28T02:17:18.897Z,1007.76
2022-12-28T02:18:18.924Z,1007.68
2022-12-28T02:19:18.908Z,1007.67
2022-12-28T02:20:18.871Z,1007.63
2022-12-28T02:21:18.905Z,1007.61
2022-12-28T02:22:18.851Z,1007.61
2022-12-28T02:23:18.838Z,1007.54
2022-12-28T02:24:18.851Z,1007.47
2022-12-28T02:25:18.813Z,1007.47
2022-12-28T02:26:18.843Z,1007.42
2022-12-28T02:27:18.790Z,1007.35
2022-12-28T02:28:18.781Z,1007.36
2022-12-28T02:29:18.771Z,1007.39
2022-12-28T02:30:18.763Z,1007.39
2022-12-28T02:31:18.782Z,1007.36
2022-12-28T02:32:18.763Z,1007.33
2022-12-28T02:33:18.764Z,1007.31
2022-12-28T02:34:18.717Z,1007.39
2022-12-28T02:35:18.708Z,1007.32
2022-12-28T02:36:19.007Z,1007.29
2022-12-28T02:37:18.705Z,1007.27
2022-12-28T02:38:18.672Z,1007.26
2022-12-28T02:39:18.665Z,1007.21
2022-12-28T02:40:18.659Z,1007.15
2022-12-28T02:41:18.632Z,1007.11
2022-12-28T02:42:18.641Z,1007.09
2022-12-28T02:43:18.633Z,1007.10
2022-12-28T02:44:18.607Z,1007.04
2022-12-28T02:45:18.610Z,1006.99
2022-12-28T02:46:18.655Z,1006.98
2022-12-28T02:47:18.581Z,1006.94
2022-12-28T02:48:18.588Z,1006.95
2022-12-28T02:49:18.558Z,1006.89
2022-12-28T02:50:18.539Z,1006.89
2022-12-28T02:51:18.539Z,1006.93
2022-12-28T02:52:18.555Z,1006.93
2022-12-28T02:53:18.542Z,1006.89
2022-12-28T02:54:18.505Z,1006.93
2022-12-28T02:55:18.483Z,1006.88
2022-12-28T02:56:18.489Z,1006.91
2022-12-28T02:57:18.462Z,1006.87
2022-12-28T02:58:18.450Z,1006.81
2022-12-28T02:59:18.470Z,1006.83
2022-12-28T03:00:18.428Z,1006.81
2022-12-28T03:01:18.534Z,1006.71
2022-12-28T03:02:18.590Z,1006.78
2022-12-28T03:03:18.425Z,1006.73
2022-12-28T03:04:18.382Z,1006.76
2022-12-28T03:05:18.403Z,1006.77
2022-12-28T03:06:19.793Z,1006.72
2022-12-28T03:07:18.412Z,1006.73
2022-12-28T03:08:18.349Z,1006.69
2022-12-28T03:09:18.338Z,1006.68
2022-12-28T03:10:18.322Z,1006.67
2022-12-28T03:11:18.353Z,1006.68
2022-12-28T03:12:18.294Z,1006.61
2022-12-28T03:13:18.295Z,1006.65
2022-12-28T03:14:18.276Z,1006.54
2022-12-28T03:15:18.285Z,1006.60
2022-12-28T03:16:18.286Z,1006.54
2022-12-28T03:17:18.286Z,1006.59
2022-12-28T03:18:18.238Z,1006.53
2022-12-28T03:19:18.220Z,1006.59
2022-12-28T03:20:18.214Z,1006.51
2022-12-28T03:21:18.214Z,1006.43
2022-12-28T03:22:18.189Z,1006.38
2022-12-28T03:23:18.201Z,1006.39
2022-12-28T03:24:18.164Z,1006.44
2022-12-28T03:25:18.155Z,1006.34
2022-12-28T03:26:18.152Z,1006.33
2022-12-28T03:27:18.133Z,1006.24
2022-12-28T03:28:18.119Z,1006.25
2022-12-28T03:29:18.138Z,1006.31
2022-12-28T03:30:18.102Z,1006.25
2022-12-28T03:31:18.112Z,1006.19
2022-12-28T03:32:18.075Z,1006.17
2022-12-28T03:33:18.064Z,1006.17
2022-12-28T03:34:18.054Z,1006.16
2022-12-28T03:35:18.067Z,1006.19
2022-12-28T03:36:18.031Z,1006.10
2022-12-28T03:37:18.039Z,1006.14
2022-12-28T03:38:18.015Z,1006.17
2022-12-28T03:39:18.000Z,1006.08
2022-12-28T03:40:18.015Z,1006.08
2022-12-28T03:41:17.993Z,1006.08
2022-12-28T03:42:17.961Z,1006.03
2022-12-28T03:43:17.949Z,1006.02
2022-12-28T03:44:17.942Z,1006.00
2022-12-28T03:45:45.919Z,1006.02
2022-12-28T03:46:18.026Z,1005.97
2022-12-28T03:47:17.910Z,1005.95
2022-12-28T03:48:17.904Z,1005.94
2022-12-28T03:49:17.887Z,1005.83
2022-12-28T03:50:17.870Z,1005.81
2022-12-28T03:51:17.892Z,1005.80
2022-12-28T03:52:17.849Z,1005.81
2022-12-28T03:53:17.846Z,1005.91
2022-12-28T03:54:17.831Z,1005.88
2022-12-28T03:55:17.836Z,1005.82
2022-12-28T03:56:17.809Z,1005.86
2022-12-28T03:57:17.827Z,1005.85
2022-12-28T03:58:17.803Z,1005.77
2022-12-28T03:59:17.777Z,1005.76
2022-12-28T04:00:17.763Z,1005.82
2022-12-28T04:01:17.874Z,1005.77
2022-12-28T04:02:17.897Z,1005.76
2022-12-28T04:03:17.797Z,1005.75
2022-12-28T04:04:17.745Z,1005.78
2022-12-28T04:05:17.710Z,1005.73
2022-12-28T04:06:17.704Z,1005.74
2022-12-28T04:07:17.702Z,1005.62
2022-12-28T04:08:17.683Z,1005.61
2022-12-28T04:09:17.699Z,1005.58
2022-12-28T04:10:17.649Z,1005.60
2022-12-28T04:11:17.643Z,1005.67
2022-12-28T04:12:17.627Z,1005.61
2022-12-28T04:13:17.628Z,1005.62
2022-12-28T04:14:17.609Z,1005.56
2022-12-28T04:15:17.625Z,1005.49
2022-12-28T04:16:17.621Z,1005.51
2022-12-28T04:17:17.584Z,1005.49
2022-12-28T04:18:17.581Z,1005.51
2022-12-28T04:19:17.558Z,1005.45
2022-12-28T04:20:17.542Z,1005.47
2022-12-28T04:21:17.562Z,1005.44
2022-12-28T04:22:17.519Z,1005.45
2022-12-28T04:23:17.513Z,1005.39
2022-12-28T04:24:17.492Z,1005.45
2022-12-28T04:25:17.492Z,1005.49
2022-12-28T04:26:17.485Z,1005.44
2022-12-28T04:27:17.505Z,1005.44
2022-12-28T04:28:17.453Z,1005.42
2022-12-28T04:29:17.443Z,1005.48
2022-12-28T04:30:17.430Z,1005.49
2022-12-28T04:31:17.494Z,1005.45
2022-12-28T04:32:17.421Z,1005.34
2022-12-28T04:33:17.435Z,1005.38
2022-12-28T04:34:17.386Z,1005.31
2022-12-28T04:35:17.381Z,1005.32
2022-12-28T04:36:17.366Z,1005.29
2022-12-28T04:37:17.362Z,1005.34
2022-12-28T04:38:17.383Z,1005.31
2022-12-28T04:39:17.341Z,1005.28
2022-12-28T04:40:17.315Z,1005.25
2022-12-28T04:41:17.308Z,1005.15
2022-12-28T04:42:17.299Z,1005.13
2022-12-28T04:43:17.287Z,1005.22
2022-12-28T04:44:17.312Z,1005.18
2022-12-28T04:45:21.928Z,1005.22
2022-12-28T04:46:17.392Z,1005.20
2022-12-28T04:47:17.239Z,1005.15
2022-12-28T04:48:17.231Z,1005.16
2022-12-28T04:49:17.222Z,1005.14
2022-12-28T04:50:17.249Z,1005.07
2022-12-28T04:51:17.200Z,1005.14
2022-12-28T04:52:17.220Z,1005.11
2022-12-28T04:53:17.171Z,1005.09
2022-12-28T04:54:17.168Z,1005.07
2022-12-28T04:55:32.624Z,1005.03
2022-12-28T04:56:17.168Z,1005.07
2022-12-28T04:57:17.130Z,1005.10
2022-12-28T04:58:17.121Z,1005.06
2022-12-28T04:59:17.105Z,1004.99
2022-12-28T05:00:17.099Z,1005.04
2022-12-28T05:01:17.235Z,1005.04
2022-12-28T05:02:17.227Z,1005.03
2022-12-28T05:03:17.068Z,1005.03
2022-12-28T05:04:17.055Z,1005.10
2022-12-28T05:05:17.046Z,1005.02
2022-12-28T05:06:17.056Z,1004.91
2022-12-28T05:07:17.049Z,1004.98
2022-12-28T05:08:17.012Z,1004.97
2022-12-28T05:09:16.999Z,1004.86
2022-12-28T05:10:16.986Z,1004.94
2022-12-28T05:11:16.975Z,1005.03
2022-12-28T05:12:16.978Z,1005.07
2022-12-28T05:13:16.981Z,1005.06
2022-12-28T05:14:16.953Z,1004.95
2022-12-28T05:15:16.928Z,1005.06
2022-12-28T05:16:16.958Z,1005.08
2022-12-28T05:17:16.905Z,1004.95
2022-12-28T05:18:16.930Z,1004.89
2022-12-28T05:19:16.912Z,1004.97
2022-12-28T05:20:16.895Z,1004.99
2022-12-28T05:21:16.862Z,1004.88
2022-12-28T05:22:16.862Z,1004.92
2022-12-28T05:23:16.852Z,1005.06
2022-12-28T05:24:16.861Z,1004.94
2022-12-28T05:25:16.823Z,1004.98
2022-12-28T05:26:16.811Z,1004.98
2022-12-28T05:27:16.815Z,1004.91
2022-12-28T05:28:16.798Z,1004.97
2022-12-28T05:29:16.793Z,1004.92
2022-12-28T05:30:16.767Z,1004.92
2022-12-28T05:31:16.814Z,1004.88
2022-12-28T05:32:16.750Z,1004.89
2022-12-28T05:33:16.731Z,1004.93
2022-12-28T05:34:16.744Z,1004.96
2022-12-28T05:35:16.715Z,1004.97
2022-12-28T05:36:16.701Z,1004.89
2022-12-28T05:37:21.814Z,1004.95
2022-12-28T05:38:16.683Z,1004.97
2022-12-28T05:39:16.772Z,1004.93
2022-12-28T05:40:16.658Z,1004.92
2022-12-28T05:41:16.638Z,1004.89
2022-12-28T05:42:16.639Z,1004.95
2022-12-28T05:43:16.623Z,1005.02
2022-12-28T05:44:16.639Z,1004.94
2022-12-28T05:45:16.606Z,1005.01
2022-12-28T05:46:16.748Z,1005.01
2022-12-28T05:47:16.575Z,1005.00
2022-12-28T05:48:16.586Z,1004.98
2022-12-28T05:49:16.584Z,1004.92
2022-12-28T05:50:16.554Z,1004.99
2022-12-28T05:51:16.528Z,1004.96
2022-12-28T05:52:16.516Z,1004.89
2022-12-28T05:53:16.510Z,1004.91
2022-12-28T05:54:16.561Z,1004.87
2022-12-28T05:55:16.489Z,1004.85
2022-12-28T05:56:16.483Z,1004.83
2022-12-28T05:57:16.475Z,1004.88
2022-12-28T05:58:16.449Z,1004.81
2022-12-28T05:59:16.481Z,1004.82
2022-12-28T06:00:16.429Z,1004.81
2022-12-28T06:01:16.499Z,1004.72
2022-12-28T06:02:20.332Z,1004.72
2022-12-28T06:03:16.506Z,1004.69
2022-12-28T06:04:16.404Z,1004.70
2022-12-28T06:05:16.374Z,1004.66
2022-12-28T06:06:16.381Z,1004.65
2022-12-28T06:07:16.360Z,1004.72
2022-12-28T06:08:21.061Z,1004.62
2022-12-28T06:09:16.361Z,1004.67
2022-12-28T06:10:16.316Z,1004.55
2022-12-28T06:11:16.308Z,1004.60
2022-12-28T06:12:16.311Z,1004.68
2022-12-28T06:13:16.287Z,1004.64
2022-12-28T06:14:16.277Z,1004.69
2022-12-28T06:15:16.304Z,1004.65
2022-12-28T06:16:16.302Z,1004.70
2022-12-28T06:17:16.284Z,1004.67
2022-12-28T06:18:16.236Z,1004.62
2022-12-28T06:19:16.218Z,1004.61
2022-12-28T06:20:16.212Z,1004.61
2022-12-28T06:21:16.231Z,1004.63
2022-12-28T06:22:16.188Z,1004.63
2022-12-28T06:23:16.177Z,1004.61
2022-12-28T06:24:16.159Z,1004.53
2022-12-28T06:25:16.152Z,1004.58
2022-12-28T06:26:16.133Z,1004.62
2022-12-28T06:27:16.155Z,1004.59
2022-12-28T06:28:16.114Z,1004.64
2022-12-28T06:29:16.107Z,1004.63
2022-12-28T06:30:16.100Z,1004.63
2022-12-28T06:31:16.128Z,1004.58
2022-12-28T06:32:16.097Z,1004.63
2022-12-28T06:33:16.071Z,1004.56
2022-12-28T06:34:16.065Z,1004.61
2022-12-28T06:35:16.039Z,1004.63
2022-12-28T06:36:19.889Z,1004.51
2022-12-28T06:37:16.044Z,1004.60
2022-12-28T06:38:16.005Z,1004.53
2022-12-28T06:39:15.991Z,1004.49
2022-12-28T06:40:15.981Z,1004.52
2022-12-28T06:41:15.966Z,1004.50
2022-12-28T06:42:15.982Z,1004.48
2022-12-28T06:43:15.956Z,1004.53
2022-12-28T06:44:15.939Z,1004.57
2022-12-28T06:45:15.927Z,1004.43
2022-12-28T06:46:15.982Z,1004.43
2022-12-28T06:47:15.930Z,1004.46
2022-12-28T06:48:15.892Z,1004.41
2022-12-28T06:49:15.888Z,1004.45
2022-12-28T06:50:15.871Z,1004.42
2022-12-28T06:51:15.873Z,1004.46
2022-12-28T06:52:15.876Z,1004.42
2022-12-28T06:53:15.832Z,1004.50
2022-12-28T06:54:15.826Z,1004.47
2022-12-28T06:55:15.813Z,1004.47
2022-12-28T06:56:15.809Z,1004.47
2022-12-28T06:57:15.888Z,1004.42
2022-12-28T06:58:15.811Z,1004.44
2022-12-28T06:59:15.772Z,1004.46
2022-12-28T07:00:15.763Z,1004.41
2022-12-28T07:01:15.928Z,1004.39
2022-12-28T07:02:15.933Z,1004.47
2022-12-28T07:03:15.735Z,1004.45
2022-12-28T07:04:15.752Z,1004.50
2022-12-28T07:05:15.706Z,1004.46
2022-12-28T07:06:15.725Z,1004.46
2022-12-28T07:07:15.676Z,1004.42
2022-12-28T07:08:15.670Z,1004.49
2022-12-28T07:09:15.667Z,1004.42
2022-12-28T07:10:15.680Z,1004.45
2022-12-28T07:11:15.636Z,1004.44
2022-12-28T07:12:15.627Z,1004.44
2022-12-28T07:13:15.643Z,1004.39
2022-12-28T07:14:15.629Z,1004.43
2022-12-28T07:15:15.596Z,1004.41
2022-12-28T07:16:15.671Z,1004.44
2022-12-28T07:17:15.566Z,1004.40
2022-12-28T07:18:15.587Z,1004.43
2022-12-28T07:19:15.579Z,1004.41
2022-12-28T07:20:15.569Z,1004.40
2022-12-28T07:21:15.549Z,1004.35
2022-12-28T07:22:15.617Z,1004.33
2022-12-28T07:23:15.497Z,1004.35
2022-12-28T07:24:15.547Z,1004.35
2022-12-28T07:25:15.475Z,1004.35
2022-12-28T07:26:15.562Z,1004.29
2022-12-28T07:27:15.452Z,1004.34
2022-12-28T07:28:15.520Z,1004.35
2022-12-28T07:29:15.431Z,1004.37
2022-12-28T07:30:15.480Z,1004.32
2022-12-28T07:31:15.547Z,1004.38
2022-12-28T07:32:15.481Z,1004.36
2022-12-28T07:33:15.399Z,1004.47
2022-12-28T07:34:15.410Z,1004.40
2022-12-28T07:35:15.377Z,1004.34
2022-12-28T07:36:15.428Z,1004.41
2022-12-28T07:37:15.382Z,1004.44
2022-12-28T07:38:21.185Z,1004.37
2022-12-28T07:39:15.323Z,1004.37
2022-12-28T07:40:15.372Z,1004.43
2022-12-28T07:41:15.322Z,1004.41
2022-12-28T07:42:15.299Z,1004.34
2022-12-28T07:43:15.319Z,1004.32
2022-12-28T07:44:15.268Z,1004.34
2022-12-28T07:45:15.265Z,1004.40
2022-12-28T07:46:15.368Z,1004.36
2022-12-28T07:47:15.237Z,1004.40
2022-12-28T07:48:15.231Z,1004.34
2022-12-28T07:49:15.220Z,1004.40
2022-12-28T07:50:15.202Z,1004.42
2022-12-28T07:51:15.242Z,1004.28
2022-12-28T07:52:15.204Z,1004.37
2022-12-28T07:53:21.815Z,1004.32
2022-12-28T07:54:15.188Z,1004.40
2022-12-28T07:55:15.142Z,1004.32
2022-12-28T07:56:15.159Z,1004.35
2022-12-28T07:57:15.122Z,1004.33
2022-12-28T07:58:15.112Z,1004.32
2022-12-28T07:59:15.112Z,1004.36
2022-12-28T08:00:15.107Z,1004.43
2022-12-28T08:01:15.272Z,1004.39
2022-12-28T08:02:15.202Z,1004.38
2022-12-28T08:03:15.135Z,1004.44
2022-12-28T08:04:15.053Z,1004.38
2022-12-28T08:05:15.080Z,1004.36
2022-12-28T08:06:15.046Z,1004.35
2022-12-28T08:07:15.009Z,1004.32
2022-12-28T08:08:15.002Z,1004.41
2022-12-28T08:09:14.989Z,1004.36
2022-12-28T08:10:15.015Z,1004.40
2022-12-28T08:11:15.004Z,1004.40
2022-12-28T08:12:14.959Z,1004.39
2022-12-28T08:13:14.970Z,1004.39
2022-12-28T08:14:14.946Z,1004.36
2022-12-28T08:15:14.923Z,1004.40
2022-12-28T08:16:14.976Z,1004.37
2022-12-28T08:17:19.077Z,1004.33
2022-12-28T08:18:14.898Z,1004.39
2022-12-28T08:19:14.875Z,1004.42
2022-12-28T08:20:14.873Z,1004.40
2022-12-28T08:21:14.891Z,1004.44
2022-12-28T08:22:14.841Z,1004.42
2022-12-28T08:23:14.844Z,1004.48
2022-12-28T08:24:14.823Z,1004.49
2022-12-28T08:25:14.808Z,1004.42
2022-12-28T08:26:14.820Z,1004.43
2022-12-28T08:27:14.787Z,1004.45
2022-12-28T08:28:14.784Z,1004.60
2022-12-28T08:29:14.793Z,1004.50
2022-12-28T08:30:14.760Z,1004.54
2022-12-28T08:31:14.878Z,1004.54
2022-12-28T08:32:14.734Z,1004.46
2022-12-28T08:33:14.720Z,1004.49
2022-12-28T08:34:14.727Z,1004.50
2022-12-28T08:35:14.702Z,1004.47
2022-12-28T08:36:14.742Z,1004.50
2022-12-28T08:37:14.695Z,1004.52
2022-12-28T08:38:14.680Z,1004.48
2022-12-28T08:39:14.681Z,1004.59
2022-12-28T08:40:14.641Z,1004.52
2022-12-28T08:41:14.694Z,1004.52
2022-12-28T08:42:14.659Z,1004.45
2022-12-28T08:43:14.607Z,1004.43
2022-12-28T08:44:14.601Z,1004.38
2022-12-28T08:45:14.589Z,1004.42
2022-12-28T08:46:14.704Z,1004.44
2022-12-28T08:47:14.691Z,1004.38
2022-12-28T08:48:14.563Z,1004.37
2022-12-28T08:49:14.550Z,1004.37
2022-12-28T08:50:18.144Z,1004.42
2022-12-28T08:51:14.555Z,1004.41
2022-12-28T08:52:14.527Z,1004.42
2022-12-28T08:53:14.500Z,1004.41
2022-12-28T08:54:14.483Z,1004.35
2022-12-28T08:55:14.472Z,1004.40
2022-12-28T08:56:14.462Z,1004.46
2022-12-28T08:57:14.494Z,1004.51
2022-12-28T08:58:14.446Z,1004.42
2022-12-28T08:59:14.440Z,1004.49
2022-12-28T09:00:14.448Z,1004.46
2022-12-28T09:01:14.533Z,1004.41
2022-12-28T09:02:14.514Z,1004.38
2022-12-28T09:03:14.460Z,1004.41
2022-12-28T09:04:14.409Z,1004.43
2022-12-28T09:05:14.366Z,1004.41
2022-12-28T09:06:14.493Z,1004.40
2022-12-28T09:07:14.396Z,1004.40
2022-12-28T09:08:14.330Z,1004.41
2022-12-28T09:09:14.336Z,1004.40
2022-12-28T09:10:14.385Z,1004.42
2022-12-28T09:11:14.302Z,1004.50
2022-12-28T09:12:14.307Z,1004.46
2022-12-28T09:13:14.276Z,1004.47
2022-12-28T09:14:22.117Z,1004.54
2022-12-28T09:15:14.256Z,1004.55
2022-12-28T09:16:14.269Z,1004.48
2022-12-28T09:17:14.280Z,1004.51
2022-12-28T09:18:14.217Z,1004.49
2022-12-28T09:19:14.226Z,1004.50
2022-12-28T09:20:14.194Z,1004.46
2022-12-28T09:21:14.197Z,1004.56
2022-12-28T09:22:14.472Z,1004.48
2022-12-28T09:23:14.162Z,1004.53
2022-12-28T09:24:14.176Z,1004.59
2022-12-28T09:25:14.197Z,1004.51
2022-12-28T09:26:14.153Z,1004.57
2022-12-28T09:27:14.157Z,1004.54
2022-12-28T09:28:14.128Z,1004.57
2022-12-28T09:29:14.096Z,1004.46
2022-12-28T09:30:14.174Z,1004.54
2022-12-28T09:31:14.115Z,1004.54
2022-12-28T09:32:14.068Z,1004.56
2022-12-28T09:33:14.075Z,1004.51
2022-12-28T09:35:14.155Z,1004.50
2022-12-28T09:36:14.034Z,1004.49
2022-12-28T09:37:14.028Z,1004.48
2022-12-28T09:38:13.993Z,1004.52
2022-12-28T09:39:14.062Z,1004.53
2022-12-28T09:40:13.989Z,1004.48
2022-12-28T09:41:14.052Z,1004.46
2022-12-28T09:42:13.959Z,1004.49
2022-12-28T09:43:13.938Z,1004.51
2022-12-28T09:44:13.943Z,1004.47
2022-12-28T09:45:13.910Z,1004.52
2022-12-28T09:46:13.995Z,1004.48
2022-12-28T09:47:13.910Z,1004.50
2022-12-28T09:48:13.887Z,1004.48
2022-12-28T09:49:13.869Z,1004.45
2022-12-28T09:50:13.900Z,1004.48
2022-12-28T09:51:13.876Z,1004.45
2022-12-28T09:52:13.882Z,1004.48
2022-12-28T09:53:13.823Z,1004.42
2022-12-28T09:54:13.822Z,1004.45
2022-12-28T09:55:13.800Z,1004.43
2022-12-28T09:56:13.853Z,1004.40
2022-12-28T09:57:13.792Z,1004.37
2022-12-28T09:58:13.775Z,1004.32
2022-12-28T09:59:13.759Z,1004.30
2022-12-28T10:00:13.774Z,1004.24
2022-12-28T10:01:13.855Z,1004.33
2022-12-28T10:02:13.802Z,1004.31
2022-12-28T10:03:13.780Z,1004.30
2022-12-28T10:04:13.705Z,1004.23
2022-12-28T10:05:13.727Z,1004.21
2022-12-28T10:06:13.723Z,1004.24
2022-12-28T10:07:13.686Z,1004.27
2022-12-28T10:08:13.683Z,1004.25
2022-12-28T10:09:13.643Z,1004.26
2022-12-28T10:10:13.688Z,1004.21
2022-12-28T10:11:13.650Z,1004.27
2022-12-28T10:12:13.643Z,1004.23
2022-12-28T10:13:45.652Z,1004.23
2022-12-28T10:14:13.639Z,1004.19
2022-12-28T10:15:13.628Z,1004.23
2022-12-28T10:16:13.651Z,1004.17
2022-12-28T10:17:13.625Z,1004.18
2022-12-28T10:18:13.575Z,1004.18
2022-12-28T10:19:13.548Z,1004.13
2022-12-28T10:20:13.532Z,1004.15
2022-12-28T10:21:13.608Z,1004.16
2022-12-28T10:22:13.505Z,1004.10
2022-12-28T10:23:13.492Z,1004.13
2022-12-28T10:25:13.484Z,1004.11
2022-12-28T10:26:13.506Z,1004.06
2022-12-28T10:27:13.455Z,1004.05
2022-12-28T10:28:13.441Z,1004.03
2022-12-28T10:29:13.429Z,1004.12
2022-12-28T10:30:13.416Z,1004.02
2022-12-28T10:31:13.453Z,1003.98
2022-12-28T10:32:13.392Z,1004.03
2022-12-28T10:33:14.033Z,1004.02
2022-12-28T10:34:13.415Z,1003.97
2022-12-28T10:35:13.363Z,1003.99
2022-12-28T10:36:13.426Z,1004.03
2022-12-28T10:37:13.999Z,1003.96
2022-12-28T10:38:13.329Z,1003.95
2022-12-28T10:39:13.324Z,1003.97
2022-12-28T10:40:13.376Z,1003.95
2022-12-28T10:41:13.321Z,1003.93
2022-12-28T10:42:13.303Z,1003.95
2022-12-28T10:43:13.278Z,1003.95
2022-12-28T10:44:38.272Z,1003.93
2022-12-28T10:45:13.261Z,1003.96
2022-12-28T10:46:13.256Z,1003.97
2022-12-28T10:47:13.234Z,1003.96
2022-12-28T10:48:13.231Z,1003.95
2022-12-28T10:49:15.694Z,1003.90
2022-12-28T10:50:37.134Z,1003.91
2022-12-28T10:51:13.391Z,1003.89
2022-12-28T10:52:13.175Z,1003.94
2022-12-28T10:53:13.159Z,1003.91
2022-12-28T10:54:13.143Z,1003.90
2022-12-28T10:55:13.139Z,1003.85
2022-12-28T10:56:13.380Z,1003.88
2022-12-28T10:57:13.114Z,1003.91
2022-12-28T10:58:30.641Z,1003.86
2022-12-28T10:59:13.312Z,1003.86
2022-12-28T11:00:13.085Z,1003.84
2022-12-28T11:01:13.272Z,1003.83
2022-12-28T11:02:13.264Z,1003.80
2022-12-28T11:03:13.091Z,1003.77
2022-12-28T11:04:13.038Z,1003.77
2022-12-28T11:05:13.032Z,1003.73
2022-12-28T11:06:13.041Z,1003.79
2022-12-28T11:07:13.036Z,1003.69
2022-12-28T11:08:13.100Z,1003.68
2022-12-28T11:09:13.007Z,1003.67
2022-12-28T11:10:12.965Z,1003.62
2022-12-28T11:11:12.983Z,1003.62
2022-12-28T11:12:12.941Z,1003.70
2022-12-28T11:13:15.815Z,1003.67
2022-12-28T11:14:12.944Z,1003.63
2022-12-28T11:15:12.946Z,1003.57
2022-12-28T11:16:12.950Z,1003.58
2022-12-28T11:17:12.896Z,1003.46
2022-12-28T11:18:12.880Z,1003.52
2022-12-28T11:19:12.881Z,1003.47
2022-12-28T11:20:12.899Z,1003.47
2022-12-28T11:21:12.847Z,1003.41
2022-12-28T11:22:12.861Z,1003.48
2022-12-28T11:23:12.825Z,1003.42
2022-12-28T11:24:12.811Z,1003.47
2022-12-28T11:25:12.838Z,1003.44
2022-12-28T11:26:12.796Z,1003.51
2022-12-28T11:27:12.802Z,1003.46
2022-12-28T11:28:12.764Z,1003.43
2022-12-28T11:29:12.759Z,1003.40
2022-12-28T11:30:17.279Z,1003.47
2022-12-28T11:31:12.779Z,1003.44
2022-12-28T11:32:12.743Z,1003.41
2022-12-28T11:33:12.715Z,1003.41
2022-12-28T11:34:12.695Z,1003.38
2022-12-28T11:35:12.711Z,1003.36
2022-12-28T11:36:12.720Z,1003.36
2022-12-28T11:37:12.680Z,1003.37
2022-12-28T11:38:12.680Z,1003.28
2022-12-28T11:39:12.692Z,1003.26
2022-12-28T11:40:12.670Z,1003.26
2022-12-28T11:41:12.645Z,1003.29
2022-12-28T11:42:38.564Z,1003.22
2022-12-28T11:43:12.622Z,1003.29
2022-12-28T11:44:12.614Z,1003.31
2022-12-28T11:45:12.574Z,1003.21
2022-12-28T11:46:12.625Z,1003.26
2022-12-28T11:47:12.558Z,1003.17
2022-12-28T11:48:12.545Z,1003.16
2022-12-28T11:49:12.527Z,1003.20
2022-12-28T11:50:12.523Z,1003.17
2022-12-28T11:51:12.508Z,1003.21
2022-12-28T11:52:12.530Z,1003.23
2022-12-28T11:53:14.124Z,1003.19
2022-12-28T11:54:12.476Z,1003.19
2022-12-28T11:55:12.470Z,1003.23
2022-12-28T11:56:12.469Z,1003.27
2022-12-28T11:57:12.480Z,1003.23
2022-12-28T11:58:12.451Z,1003.19
2022-12-28T11:59:12.419Z,1003.19
2022-12-28T12:00:15.867Z,1003.13
2022-12-28T12:01:12.443Z,1003.09
2022-12-28T12:02:12.459Z,1003.17
2022-12-28T12:03:12.430Z,1003.12
2022-12-28T12:04:12.366Z,1003.14
2022-12-28T12:05:12.355Z,1003.13
2022-12-28T12:06:12.366Z,1003.10
2022-12-28T12:07:12.337Z,1003.12